createdAt,value
2018-01-14T00:01:53.029Z,89.90
2018-01-14T00:04:20.634Z,90.00
2018-01-14T00:06:48.257Z,90.00
2018-01-14T00:09:15.861Z,90.00
2018-01-14T00:11:43.488Z,90.40
2018-01-14T00:14:11.100Z,90.40
2018-01-14T00:16:38.777Z,90.10
2018-01-14T00:19:07.188Z,90.60
2018-01-14T00:21:34.810Z,90.60
2018-01-14T00:24:03.161Z,90.70
2018-01-14T00:26:30.771Z,90.70
2018-01-14T00:28:59.139Z,90.60
2018-01-14T00:31:26.778Z,90.60
2018-01-14T00:33:54.381Z,90.70
2018-01-14T00:36:22.010Z,90.30
2018-01-14T00:38:50.369Z,90.60
2018-01-14T00:41:18.016Z,90.60
2018-01-14T00:43:45.621Z,90.80
2018-01-14T00:46:13.989Z,90.60
2018-01-14T00:48:42.386Z,90.20
2018-01-14T00:51:10.729Z,89.50
2018-01-14T00:53:38.350Z,89.40
2018-01-14T00:56:05.929Z,90.10
2018-01-14T00:58:35.082Z,90.20
2018-01-14T01:01:02.657Z,90.00
2018-01-14T01:03:30.266Z,90.20
2018-01-14T01:05:57.873Z,90.10
2018-01-14T01:08:25.462Z,90.00
2018-01-14T01:10:53.069Z,90.10
2018-01-14T01:13:21.473Z,89.40
2018-01-14T01:15:49.076Z,89.30
2018-01-14T01:18:16.694Z,89.90
2018-01-14T01:20:44.307Z,90.00
2018-01-14T01:23:11.927Z,90.00
2018-01-14T01:25:39.543Z,89.40
2018-01-14T01:28:07.254Z,89.30
2018-01-14T01:30:34.865Z,89.70
2018-01-14T01:33:02.457Z,89.10
2018-01-14T01:35:30.065Z,89.60
2018-01-14T01:37:57.703Z,89.40
2018-01-14T01:40:25.297Z,89.30
2018-01-14T01:42:52.904Z,89.50
2018-01-14T01:45:20.481Z,89.40
2018-01-14T01:47:48.132Z,89.70
2018-01-14T01:50:15.733Z,89.80
2018-01-14T01:52:43.362Z,90.00
2018-01-14T01:55:11.075Z,90.00
2018-01-14T01:57:38.703Z,89.20
2018-01-14T02:00:06.308Z,89.70
2018-01-14T02:02:34.660Z,89.90
2018-01-14T02:05:02.270Z,89.70
2018-01-14T02:07:29.873Z,89.70
2018-01-14T02:09:57.482Z,90.00
2018-01-14T02:12:25.050Z,90.00
2018-01-14T02:14:52.656Z,90.00
2018-01-14T02:17:20.349Z,90.00
2018-01-14T02:19:48.725Z,89.80
2018-01-14T02:22:17.075Z,90.00
2018-01-14T02:24:44.691Z,89.90
2018-01-14T02:27:12.329Z,89.90
2018-01-14T02:29:40.777Z,89.90
2018-01-14T02:32:08.401Z,89.90
2018-01-14T02:34:36.021Z,89.60
2018-01-14T02:37:04.393Z,90.10
2018-01-14T02:39:32.764Z,90.80
2018-01-14T02:42:00.394Z,90.60
2018-01-14T02:44:27.981Z,90.50
2018-01-14T02:46:55.568Z,90.20
2018-01-14T02:49:23.964Z,89.90
2018-01-14T02:51:51.585Z,89.90
2018-01-14T02:54:19.197Z,89.40
2018-01-14T02:56:46.828Z,89.80
2018-01-14T02:59:15.204Z,90.00
2018-01-14T03:01:43.622Z,89.80
2018-01-14T03:04:11.206Z,89.70
2018-01-14T03:06:38.823Z,89.70
2018-01-14T03:09:06.437Z,89.40
2018-01-14T03:11:34.055Z,89.50
2018-01-14T03:14:01.642Z,89.60
2018-01-14T03:16:29.262Z,89.30
2018-01-14T03:18:56.917Z,89.50
2018-01-14T03:21:24.519Z,89.60
2018-01-14T03:23:52.144Z,89.30
2018-01-14T03:26:19.744Z,89.10
2018-01-14T03:28:47.389Z,89.30
2018-01-14T03:31:14.980Z,89.70
2018-01-14T03:33:43.389Z,89.40
2018-01-14T03:36:11.760Z,89.60
2018-01-14T03:38:40.132Z,90.00
2018-01-14T03:41:07.713Z,90.00
2018-01-14T03:43:36.106Z,89.50
2018-01-14T03:46:03.693Z,89.50
2018-01-14T03:48:31.288Z,89.60
2018-01-14T03:50:58.889Z,89.00
2018-01-14T03:53:26.490Z,88.90
2018-01-14T03:55:54.865Z,88.30
2018-01-14T03:58:22.456Z,88.20
2018-01-14T04:00:50.840Z,89.00
2018-01-14T04:03:19.229Z,88.90
2018-01-14T04:05:47.577Z,89.30
2018-01-14T04:08:15.176Z,89.30
2018-01-14T04:10:42.831Z,89.10
2018-01-14T04:13:11.198Z,89.20
2018-01-14T04:15:39.645Z,88.50
2018-01-14T04:18:08.012Z,88.10
2018-01-14T04:20:35.633Z,88.10
2018-01-14T04:23:03.239Z,87.60
2018-01-14T04:25:30.855Z,88.20
2018-01-14T04:27:58.455Z,87.70
2018-01-14T04:30:26.028Z,87.40
2018-01-14T04:32:53.637Z,87.70
2018-01-14T04:35:21.272Z,87.40
2018-01-14T04:37:49.638Z,86.90
2018-01-14T04:40:17.252Z,86.90
2018-01-14T04:42:44.846Z,87.20
2018-01-14T04:45:12.447Z,87.20
2018-01-14T04:47:40.064Z,87.60
2018-01-14T04:50:08.433Z,88.00
2018-01-14T04:52:36.073Z,88.00
2018-01-14T04:55:03.692Z,87.70
2018-01-14T04:57:32.064Z,87.20
2018-01-14T04:59:59.689Z,87.10
2018-01-14T05:02:27.286Z,87.70
2018-01-14T05:04:54.893Z,87.40
2018-01-14T05:07:22.485Z,87.40
2018-01-14T05:09:50.077Z,88.10
2018-01-14T05:12:18.512Z,87.50
2018-01-14T05:14:46.106Z,87.40
2018-01-14T05:17:13.810Z,87.30
2018-01-14T05:19:41.409Z,87.90
2018-01-14T05:22:09.039Z,87.70
2018-01-14T05:24:36.687Z,86.60
2018-01-14T05:27:04.515Z,86.60
2018-01-14T05:29:32.096Z,87.40
2018-01-14T05:32:01.000Z,86.80
2018-01-14T05:34:28.581Z,86.80
2018-01-14T05:36:56.266Z,86.40
2018-01-14T05:39:23.870Z,86.20
2018-01-14T05:41:52.230Z,86.30
2018-01-14T05:44:19.841Z,86.20
2018-01-14T05:46:48.254Z,87.10
2018-01-14T05:49:16.659Z,87.10
2018-01-14T05:51:45.015Z,87.50
2018-01-14T05:54:12.614Z,87.50
2018-01-14T05:56:40.206Z,87.60
2018-01-14T05:59:07.812Z,87.60
2018-01-14T06:01:36.180Z,88.80
2018-01-14T06:04:03.769Z,88.10
2018-01-14T06:06:32.181Z,88.50
2018-01-14T06:08:59.760Z,88.50
2018-01-14T06:11:27.361Z,87.90
2018-01-14T06:13:55.729Z,88.00
2018-01-14T06:16:24.124Z,88.00
2018-01-14T06:18:52.495Z,87.30
2018-01-14T06:21:20.860Z,87.10
2018-01-14T06:23:48.520Z,87.10
2018-01-14T06:26:16.147Z,87.40
2018-01-14T06:28:43.736Z,88.00
2018-01-14T06:31:11.344Z,87.80
2018-01-14T06:33:38.968Z,87.50
2018-01-14T06:36:07.321Z,89.10
2018-01-14T06:38:34.922Z,88.50
2018-01-14T06:41:03.307Z,90.20
2018-01-14T06:43:30.916Z,90.20
2018-01-14T06:45:58.528Z,90.10
2018-01-14T06:48:27.226Z,90.00
2018-01-14T06:50:54.832Z,89.70
2018-01-14T06:53:22.433Z,89.40
2018-01-14T06:55:50.024Z,89.10
2018-01-14T06:58:17.649Z,89.70
2018-01-14T07:00:46.025Z,89.70
2018-01-14T07:03:14.419Z,89.30
2018-01-14T07:05:42.764Z,89.30
2018-01-14T07:08:10.342Z,89.20
2018-01-14T07:10:38.704Z,90.00
2018-01-14T07:13:06.292Z,90.00
2018-01-14T07:15:34.476Z,89.30
2018-01-14T07:18:02.057Z,90.20
2018-01-14T07:20:29.657Z,90.80
2018-01-14T07:22:57.233Z,90.50
2018-01-14T07:25:25.601Z,90.10
2018-01-14T07:27:53.964Z,90.30
2018-01-14T07:30:21.574Z,90.30
2018-01-14T07:32:49.180Z,90.50
2018-01-14T07:35:16.769Z,90.90
2018-01-14T07:37:45.129Z,90.80
2018-01-14T07:40:12.721Z,90.80
2018-01-14T07:42:40.322Z,90.90
2018-01-14T07:45:07.917Z,90.70
2018-01-14T07:47:36.319Z,90.80
2018-01-14T07:50:03.906Z,90.80
2018-01-14T07:52:31.488Z,91.30
2018-01-14T07:54:59.098Z,91.20
2018-01-14T07:57:26.685Z,91.20
2018-01-14T07:59:54.318Z,91.10
2018-01-14T08:02:21.927Z,91.20
2018-01-14T08:04:49.517Z,91.20
2018-01-14T08:07:17.894Z,91.30
2018-01-14T08:09:45.482Z,91.30
2018-01-14T08:12:13.121Z,91.60
2018-01-14T08:14:41.518Z,91.30
2018-01-14T08:17:09.128Z,91.30
2018-01-14T08:19:37.528Z,91.90
2018-01-14T08:22:05.131Z,91.90
2018-01-14T08:24:32.733Z,91.80
2018-01-14T08:27:00.420Z,91.90
2018-01-14T08:29:28.848Z,91.90
2018-01-14T08:31:56.443Z,91.80
2018-01-14T08:34:24.081Z,91.90
2018-01-14T08:36:51.744Z,92.10
2018-01-14T08:39:19.361Z,91.90
2018-01-14T08:41:47.712Z,91.70
2018-01-14T08:44:15.316Z,91.70
2018-01-14T08:46:42.925Z,91.90
2018-01-14T08:49:10.513Z,91.70
2018-01-14T08:51:38.969Z,91.60
2018-01-14T08:54:06.587Z,91.60
2018-01-14T08:56:34.184Z,91.30
2018-01-14T08:59:01.772Z,91.20
2018-01-14T09:01:35.640Z,91.20
2018-01-14T09:04:03.273Z,91.20
2018-01-14T09:06:30.912Z,91.20
2018-01-14T09:08:58.525Z,91.00
2018-01-14T09:11:26.169Z,91.00
2018-01-14T09:13:53.769Z,91.00
2018-01-14T09:16:21.353Z,90.60
2018-01-14T09:18:48.989Z,90.60
2018-01-14T09:21:16.566Z,90.50
2018-01-14T09:23:44.961Z,90.80
2018-01-14T09:26:12.564Z,90.80
2018-01-14T09:28:40.202Z,90.10
2018-01-14T09:31:07.808Z,90.20
2018-01-14T09:33:35.469Z,90.20
2018-01-14T09:36:03.050Z,89.50
2018-01-14T09:38:31.448Z,89.90
2018-01-14T09:40:59.061Z,89.90
2018-01-14T09:43:26.665Z,89.20
2018-01-14T09:45:54.281Z,89.10
2018-01-14T09:48:21.928Z,89.00
2018-01-14T09:50:49.541Z,89.00
2018-01-14T09:53:17.193Z,88.70
2018-01-14T09:55:45.572Z,88.40
2018-01-14T09:58:13.985Z,88.10
2018-01-14T10:00:41.617Z,88.10
2018-01-14T10:03:09.956Z,88.00
2018-01-14T10:05:37.570Z,88.00
2018-01-14T10:08:05.150Z,87.80
2018-01-14T10:10:33.716Z,87.10
2018-01-14T10:13:01.337Z,88.70
2018-01-14T10:15:28.941Z,89.40
2018-01-14T10:17:56.553Z,88.10
2018-01-14T10:20:24.164Z,87.60
2018-01-14T10:22:51.791Z,87.50
2018-01-14T10:25:20.146Z,87.80
2018-01-14T10:27:47.777Z,87.80
2018-01-14T10:30:15.407Z,87.00
2018-01-14T10:32:43.003Z,87.00
2018-01-14T10:35:10.617Z,88.60
2018-01-14T10:37:38.974Z,87.50
2018-01-14T10:40:06.572Z,87.50
2018-01-14T10:42:34.156Z,87.70
2018-01-14T10:45:01.896Z,87.60
2018-01-14T10:47:29.505Z,87.20
2018-01-14T10:49:57.177Z,87.00
2018-01-14T10:52:25.001Z,86.70
2018-01-14T10:54:52.641Z,86.30
2018-01-14T10:57:20.395Z,85.60
2018-01-14T10:59:48.774Z,86.40
2018-01-14T11:02:17.423Z,86.80
2018-01-14T11:04:45.004Z,86.80
2018-01-14T11:07:13.476Z,85.90
2018-01-14T11:09:41.052Z,85.90
2018-01-14T11:12:09.448Z,86.70
2018-01-14T11:14:37.330Z,86.70
2018-01-14T11:17:05.674Z,86.70
2018-01-14T11:19:34.033Z,86.10
2018-01-14T11:22:01.735Z,86.60
2018-01-14T11:24:29.325Z,86.30
2018-01-14T11:26:57.148Z,86.10
2018-01-14T11:29:36.693Z,85.80
2018-01-14T11:32:04.472Z,85.30
2018-01-14T11:34:32.121Z,85.90
2018-01-14T11:36:59.764Z,85.20
2018-01-14T11:39:28.189Z,85.60
2018-01-14T11:41:55.773Z,85.60
2018-01-14T11:44:24.348Z,85.50
2018-01-14T11:46:52.713Z,85.30
2018-01-14T11:49:20.350Z,85.30
2018-01-14T11:51:47.944Z,85.70
2018-01-14T11:54:15.556Z,86.00
2018-01-14T11:56:43.924Z,85.80
2018-01-14T11:59:12.307Z,86.60
2018-01-14T12:01:40.654Z,85.80
2018-01-14T12:04:08.273Z,85.70
2018-01-14T12:06:36.013Z,85.50
2018-01-14T12:09:04.372Z,85.30
2018-01-14T12:11:31.984Z,85.30
2018-01-14T12:13:59.596Z,84.30
2018-01-14T12:16:27.207Z,85.60
2018-01-14T12:18:55.701Z,86.00
2018-01-14T12:21:23.310Z,84.90
2018-01-14T12:23:51.705Z,84.60
2018-01-14T12:26:19.326Z,84.60
2018-01-14T12:28:46.920Z,84.00
2018-01-14T12:31:15.306Z,84.70
2018-01-14T12:36:53.808Z,84.40
2018-01-14T12:39:21.413Z,85.20
2018-01-14T12:41:49.069Z,84.90
2018-01-14T12:44:17.445Z,83.70
2018-01-14T12:46:45.046Z,83.70
2018-01-14T12:49:12.650Z,82.80
2018-01-14T12:51:41.038Z,82.90
2018-01-14T12:54:08.742Z,82.90
2018-01-14T12:56:36.349Z,82.50
2018-01-14T12:59:04.700Z,83.70
2018-01-14T13:01:32.314Z,83.70
2018-01-14T13:03:59.912Z,82.60
2018-01-14T13:06:27.520Z,82.60
2018-01-14T13:08:55.112Z,81.10
2018-01-14T13:11:22.733Z,81.00
2018-01-14T13:13:51.080Z,80.00
2018-01-14T13:16:18.673Z,80.00
2018-01-14T13:18:47.060Z,79.60
2018-01-14T13:21:14.687Z,80.20
2018-01-14T13:23:42.281Z,79.30
2018-01-14T13:26:09.899Z,79.10
2018-01-14T13:28:37.684Z,79.30
2018-01-14T13:31:06.057Z,79.70
2018-01-14T13:33:34.424Z,80.70
2018-01-14T13:36:02.071Z,80.60
2018-01-14T13:38:29.661Z,80.90
2018-01-14T13:40:58.037Z,79.20
2018-01-14T13:43:26.419Z,78.20
2018-01-14T13:45:54.794Z,78.40
2018-01-14T13:48:23.134Z,78.20
2018-01-14T13:50:50.738Z,78.10
2018-01-14T13:53:19.096Z,80.10
2018-01-14T13:55:46.699Z,80.10
2018-01-14T13:58:14.290Z,79.90
2018-01-14T14:00:41.966Z,79.80
2018-01-14T14:03:10.341Z,80.50
2018-01-14T14:05:37.941Z,80.90
2018-01-14T14:08:06.401Z,79.60
2018-01-14T14:10:34.002Z,79.60
2018-01-14T14:13:01.585Z,78.40
2018-01-14T14:15:29.181Z,77.40
2018-01-14T14:17:56.782Z,77.70
2018-01-14T14:20:24.381Z,77.50
2018-01-14T14:22:52.066Z,77.00
2018-01-14T14:25:19.658Z,75.70
2018-01-14T14:27:47.254Z,75.40
2018-01-14T14:30:14.836Z,76.20
2018-01-14T14:32:42.450Z,76.90
2018-01-14T14:35:10.045Z,76.00
2018-01-14T14:37:37.649Z,77.00
2018-01-14T14:40:06.012Z,76.20
2018-01-14T14:42:33.693Z,76.20
2018-01-14T14:45:02.100Z,77.10
2018-01-14T14:47:29.694Z,76.60
2018-01-14T14:49:57.332Z,75.80
2018-01-14T14:52:24.930Z,74.60
2018-01-14T14:54:52.525Z,75.20
2018-01-14T14:57:20.117Z,75.40
2018-01-14T14:59:48.496Z,75.70
2018-01-14T15:02:16.085Z,75.70
2018-01-14T15:04:43.681Z,76.80
2018-01-14T15:07:11.266Z,76.60
2018-01-14T15:09:38.884Z,76.40
2018-01-14T15:12:07.229Z,77.60
2018-01-14T15:14:34.852Z,77.60
2018-01-14T15:17:02.433Z,77.40
2018-01-14T15:19:30.024Z,76.60
2018-01-14T15:21:57.686Z,77.10
2018-01-14T15:24:25.297Z,77.50
2018-01-14T15:26:52.914Z,77.70
2018-01-14T15:29:20.513Z,77.70
2018-01-14T15:31:48.198Z,78.00
2018-01-14T15:34:15.815Z,78.00
2018-01-14T15:36:44.205Z,78.80
2018-01-14T15:39:11.777Z,78.70
2018-01-14T15:41:39.392Z,79.00
2018-01-14T15:44:07.003Z,79.10
2018-01-14T15:46:34.745Z,79.30
2018-01-14T15:49:02.345Z,79.20
2018-01-14T15:51:30.000Z,79.20
2018-01-14T15:53:57.568Z,79.30
2018-01-14T15:56:25.912Z,79.80
2018-01-14T15:58:53.549Z,79.80
2018-01-14T16:01:21.916Z,79.90
2018-01-14T16:03:50.348Z,79.70
2018-01-14T16:06:17.937Z,79.70
2018-01-14T16:08:45.555Z,79.60
2018-01-14T16:11:13.218Z,79.00
2018-01-14T16:13:40.858Z,79.20
2018-01-14T16:16:09.220Z,80.10
2018-01-14T16:18:37.612Z,79.80
2018-01-14T16:21:06.000Z,79.80
2018-01-14T16:23:34.424Z,80.40
2018-01-14T16:26:02.033Z,80.40
2018-01-14T16:28:30.398Z,80.00
2018-01-14T16:30:58.038Z,80.00
2018-01-14T16:33:25.633Z,80.10
2018-01-14T16:35:54.026Z,80.60
2018-01-14T16:38:22.378Z,81.00
2018-01-14T16:40:50.761Z,81.40
2018-01-14T16:43:19.200Z,81.70
2018-01-14T16:45:46.820Z,81.70
2018-01-14T16:48:14.408Z,81.90
2018-01-14T16:50:42.031Z,82.20
2018-01-14T16:53:10.465Z,82.10
2018-01-14T16:55:38.849Z,82.50
2018-01-14T16:58:06.442Z,82.50
2018-01-14T17:00:34.818Z,82.70
2018-01-14T17:03:03.194Z,83.00
2018-01-14T17:05:30.801Z,82.90
2018-01-14T17:07:58.446Z,83.20
2018-01-14T17:10:26.063Z,83.50
2018-01-14T17:12:53.688Z,83.20
2018-01-14T17:15:21.278Z,84.20
2018-01-14T17:17:48.894Z,83.90
2018-01-14T17:20:16.539Z,84.00
2018-01-14T17:22:44.142Z,83.90
2018-01-14T17:25:12.501Z,85.10
2018-01-14T17:27:40.129Z,85.10
2018-01-14T17:30:08.809Z,85.30
2018-01-14T17:32:37.189Z,85.40
2018-01-14T17:35:05.545Z,85.80
2018-01-14T17:37:33.158Z,85.80
2018-01-14T17:40:00.771Z,85.40
2018-01-14T17:42:28.386Z,85.10
2018-01-14T17:44:55.976Z,85.20
2018-01-14T17:47:23.601Z,85.00
2018-01-14T17:49:51.198Z,84.90
2018-01-14T17:52:18.830Z,85.40
2018-01-14T17:54:46.432Z,85.30
2018-01-14T17:57:14.136Z,85.10
2018-01-14T17:59:42.526Z,85.30
2018-01-14T18:02:10.160Z,85.30
2018-01-14T18:04:38.549Z,85.40
2018-01-14T18:07:06.220Z,85.40
2018-01-14T18:09:33.858Z,85.70
2018-01-14T18:12:02.211Z,85.30
2018-01-14T18:14:29.827Z,85.20
2018-01-14T18:19:59.114Z,87.00
2018-01-14T18:22:27.474Z,86.30
2018-01-14T18:24:55.149Z,86.20
2018-01-14T18:27:23.506Z,86.50
2018-01-14T18:29:51.192Z,86.30
2018-01-14T18:32:18.871Z,86.20
2018-01-14T18:34:46.445Z,86.20
2018-01-14T18:37:14.060Z,86.40
2018-01-14T18:39:41.670Z,85.90
2018-01-14T18:42:09.286Z,86.90
2018-01-14T18:44:36.889Z,86.80
2018-01-14T18:47:04.486Z,87.10
2018-01-14T18:49:32.086Z,87.70
2018-01-14T18:52:00.435Z,88.10
2018-01-14T18:54:28.124Z,88.10
2018-01-14T18:56:55.816Z,87.90
2018-01-14T18:59:23.488Z,88.10
2018-01-14T19:01:51.176Z,88.40
2018-01-14T19:04:18.809Z,88.20
2018-01-14T19:06:46.729Z,87.40
2018-01-14T19:09:15.117Z,87.00
2018-01-14T19:11:43.532Z,87.50
2018-01-14T19:14:11.147Z,87.50
2018-01-14T19:16:39.604Z,86.90
2018-01-14T19:19:07.367Z,86.70
2018-01-14T19:21:35.888Z,87.40
2018-01-14T19:24:03.559Z,87.40
2018-01-14T19:26:31.278Z,87.80
2018-01-14T19:28:58.944Z,88.50
2018-01-14T19:31:27.440Z,88.70
2018-01-14T19:33:55.166Z,88.70
2018-01-14T19:36:22.889Z,88.40
2018-01-14T19:38:50.688Z,88.70
2018-01-14T19:41:18.474Z,88.30
2018-01-14T19:43:47.066Z,88.00
2018-01-14T19:46:15.585Z,87.00
2018-01-14T19:48:43.386Z,87.00
2018-01-14T19:51:12.001Z,87.40
2018-01-14T19:53:39.894Z,87.60
2018-01-14T19:56:07.787Z,87.80
2018-01-14T19:58:36.328Z,87.80
2018-01-14T20:01:04.250Z,88.00
2018-01-14T20:03:32.922Z,88.30
2018-01-14T20:06:00.807Z,88.20
2018-01-14T20:08:29.502Z,89.00
2018-01-14T20:10:57.398Z,89.40
2018-01-14T20:13:25.316Z,88.30
2018-01-14T20:15:53.183Z,88.40
2018-01-14T20:18:21.119Z,88.00
2018-01-14T20:20:49.012Z,88.50
2018-01-14T20:23:17.001Z,87.80
2018-01-14T20:25:44.917Z,88.00
2018-01-14T20:28:12.784Z,88.60
2018-01-14T20:30:40.688Z,88.80
2018-01-14T20:33:08.604Z,88.80
2018-01-14T20:35:36.490Z,88.50
2018-01-14T20:38:04.384Z,88.60
2018-01-14T20:40:32.297Z,88.80
2018-01-14T20:43:00.168Z,88.80
2018-01-14T20:45:28.140Z,88.10
2018-01-14T20:47:56.036Z,88.10
2018-01-14T20:50:23.744Z,88.20
2018-01-14T20:52:51.348Z,88.60
2018-01-14T20:55:19.742Z,88.40
2018-01-14T20:57:47.381Z,88.40
2018-01-14T21:00:15.905Z,88.70
2018-01-14T21:02:43.498Z,88.60
2018-01-14T21:05:11.114Z,88.40
2018-01-14T21:07:39.061Z,88.70
2018-01-14T21:10:07.440Z,88.90
2018-01-14T21:12:35.876Z,88.90
2018-01-14T21:15:03.491Z,88.90
2018-01-14T21:17:31.108Z,88.80
2018-01-14T21:19:58.798Z,88.70
2018-01-14T21:22:27.156Z,88.40
2018-01-14T21:24:54.813Z,88.40
2018-01-14T21:27:22.409Z,88.30
2018-01-14T21:29:50.031Z,88.20
2018-01-14T21:32:17.642Z,88.60
2018-01-14T21:34:45.249Z,88.70
2018-01-14T21:37:12.853Z,88.70
2018-01-14T21:39:40.481Z,88.90
2018-01-14T21:42:08.090Z,89.40
2018-01-14T21:44:35.700Z,88.60
2018-01-14T21:47:03.282Z,89.00
2018-01-14T21:49:31.674Z,89.20
2018-01-14T21:51:59.266Z,89.20
2018-01-14T21:54:26.886Z,89.00
2018-01-14T21:56:55.309Z,89.10
2018-01-14T21:59:22.899Z,89.10
2018-01-14T22:01:50.538Z,89.30
2018-01-14T22:04:18.170Z,89.40
2018-01-14T22:06:45.768Z,89.70
2018-01-14T22:09:13.405Z,89.70
2018-01-14T22:11:41.021Z,90.00
2018-01-14T22:14:09.394Z,90.00
2018-01-14T22:16:37.781Z,89.40
2018-01-14T22:19:06.222Z,89.90
2018-01-14T22:21:33.842Z,89.90
2018-01-14T22:24:01.441Z,89.70
2018-01-14T22:26:30.114Z,89.60
2018-01-14T22:28:57.703Z,89.60
2018-01-14T22:31:25.376Z,90.00
2018-01-14T22:33:52.961Z,89.50
2018-01-14T22:36:20.574Z,90.00
2018-01-14T22:38:48.150Z,90.00
2018-01-14T22:41:15.738Z,90.10
2018-01-14T22:43:44.133Z,90.00
2018-01-14T22:46:11.751Z,89.90
2018-01-14T22:48:39.369Z,90.00
2018-01-14T22:51:06.955Z,90.40
2018-01-14T22:53:34.583Z,90.40
2018-01-14T22:56:02.230Z,90.30
2018-01-14T22:58:29.850Z,90.50
2018-01-14T23:00:57.673Z,90.60
2018-01-14T23:03:25.282Z,90.80
2018-01-14T23:05:52.870Z,91.00
2018-01-14T23:08:21.376Z,90.60
2018-01-14T23:10:49.000Z,90.60
2018-01-14T23:13:17.364Z,91.00
2018-01-14T23:15:44.965Z,90.90
2018-01-14T23:18:12.573Z,90.80
2018-01-14T23:20:40.189Z,91.00
2018-01-14T23:23:07.986Z,90.90
2018-01-14T23:25:35.564Z,90.70
2018-01-14T23:28:03.181Z,90.70
2018-01-14T23:30:30.868Z,90.70
2018-01-14T23:32:58.461Z,91.00
2018-01-14T23:35:26.897Z,91.50
2018-01-14T23:37:54.454Z,91.20
2018-01-14T23:40:22.060Z,91.20
2018-01-14T23:42:50.405Z,91.10
2018-01-14T23:45:18.005Z,91.10
2018-01-14T23:47:46.366Z,90.90
2018-01-14T23:50:13.964Z,90.90
2018-01-14T23:52:41.571Z,90.60
2018-01-14T23:55:09.197Z,90.60
2018-01-14T23:57:36.814Z,90.90
